sensor_id;sensor_type;location;lat;lon;timestamp;P1;durP1;ratioP1;P2;durP2;ratioP2
12348;SDS011;5974;42.710;27.258;2022-09-03T00:01:26;7.97;;;4.90;;
12348;SDS011;5974;42.710;27.258;2022-09-03T00:03:56;8.47;;;4.67;;
12348;SDS011;5974;42.710;27.258;2022-09-03T00:06:25;7.67;;;4.80;;
12348;SDS011;5974;42.710;27.258;2022-09-03T00:08:53;6.60;;;4.80;;
12348;SDS011;5974;42.710;27.258;2022-09-03T00:11:25;6.10;;;4.50;;
12348;SDS011;5974;42.710;27.258;2022-09-03T00:13:57;8.90;;;5.10;;
12348;SDS011;5974;42.710;27.258;2022-09-03T00:16:27;9.63;;;4.80;;
12348;SDS011;5974;42.710;27.258;2022-09-03T00:18:57;8.20;;;4.53;;
12348;SDS011;5974;42.710;27.258;2022-09-03T00:21:27;6.80;;;4.87;;
12348;SDS011;5974;42.710;27.258;2022-09-03T00:23:55;6.70;;;4.87;;
12348;SDS011;5974;42.710;27.258;2022-09-03T00:26:24;5.33;;;4.77;;
12348;SDS011;5974;42.710;27.258;2022-09-03T00:28:54;8.97;;;5.40;;
12348;SDS011;5974;42.710;27.258;2022-09-03T00:31:24;6.93;;;5.13;;
12348;SDS011;5974;42.710;27.258;2022-09-03T00:33:54;9.27;;;6.03;;
12348;SDS011;5974;42.710;27.258;2022-09-03T00:36:24;9.50;;;6.10;;
12348;SDS011;5974;42.710;27.258;2022-09-03T00:38:53;9.87;;;6.30;;
12348;SDS011;5974;42.710;27.258;2022-09-03T00:41:23;9.60;;;6.17;;
12348;SDS011;5974;42.710;27.258;2022-09-03T00:44:01;9.87;;;6.23;;
12348;SDS011;5974;42.710;27.258;2022-09-03T00:46:35;7.30;;;5.83;;
12348;SDS011;5974;42.710;27.258;2022-09-03T00:49:12;9.23;;;6.30;;
12348;SDS011;5974;42.710;27.258;2022-09-03T00:51:42;6.30;;;4.73;;
12348;SDS011;5974;42.710;27.258;2022-09-03T00:54:13;8.47;;;5.17;;
12348;SDS011;5974;42.710;27.258;2022-09-03T00:56:43;9.10;;;5.20;;
12348;SDS011;5974;42.710;27.258;2022-09-03T00:59:17;7.67;;;4.90;;
12348;SDS011;5974;42.710;27.258;2022-09-03T01:01:52;6.57;;;5.00;;
12348;SDS011;5974;42.710;27.258;2022-09-03T01:04:27;6.77;;;5.50;;
12348;SDS011;5974;42.710;27.258;2022-09-03T01:06:57;8.23;;;5.00;;
12348;SDS011;5974;42.710;27.258;2022-09-03T01:09:31;7.53;;;5.13;;
12348;SDS011;5974;42.710;27.258;2022-09-03T01:12:05;8.80;;;5.27;;
12348;SDS011;5974;42.710;27.258;2022-09-03T01:14:40;9.43;;;5.10;;
12348;SDS011;5974;42.710;27.258;2022-09-03T01:17:10;8.40;;;4.73;;
12348;SDS011;5974;42.710;27.258;2022-09-03T01:22:28;9.70;;;5.07;;
12348;SDS011;5974;42.710;27.258;2022-09-03T01:25:11;9.47;;;4.80;;
12348;SDS011;5974;42.710;27.258;2022-09-03T01:27:44;8.87;;;5.17;;
12348;SDS011;5974;42.710;27.258;2022-09-03T01:30:13;8.93;;;4.90;;
12348;SDS011;5974;42.710;27.258;2022-09-03T01:32:43;7.80;;;4.93;;
12348;SDS011;5974;42.710;27.258;2022-09-03T01:35:13;8.27;;;5.40;;
12348;SDS011;5974;42.710;27.258;2022-09-03T01:37:46;7.37;;;4.40;;
12348;SDS011;5974;42.710;27.258;2022-09-03T01:40:20;10.00;;;5.63;;
12348;SDS011;5974;42.710;27.258;2022-09-03T01:42:53;6.53;;;4.77;;
12348;SDS011;5974;42.710;27.258;2022-09-03T01:45:37;7.83;;;4.93;;
12348;SDS011;5974;42.710;27.258;2022-09-03T01:48:19;8.90;;;5.00;;
12348;SDS011;5974;42.710;27.258;2022-09-03T01:50:48;8.87;;;5.43;;
12348;SDS011;5974;42.710;27.258;2022-09-03T01:53:25;11.70;;;5.27;;
12348;SDS011;5974;42.710;27.258;2022-09-03T01:55:55;7.23;;;5.17;;
12348;SDS011;5974;42.710;27.258;2022-09-03T01:58:26;7.50;;;5.10;;
12348;SDS011;5974;42.710;27.258;2022-09-03T02:00:58;8.23;;;5.17;;
12348;SDS011;5974;42.710;27.258;2022-09-03T02:06:00;8.77;;;5.33;;
12348;SDS011;5974;42.710;27.258;2022-09-03T02:08:27;6.93;;;5.27;;
12348;SDS011;5974;42.710;27.258;2022-09-03T02:10:55;8.47;;;5.30;;
12348;SDS011;5974;42.710;27.258;2022-09-03T02:16:30;8.53;;;5.50;;
12348;SDS011;5974;42.710;27.258;2022-09-03T02:18:59;14.37;;;6.07;;
12348;SDS011;5974;42.710;27.258;2022-09-03T02:21:27;10.23;;;5.63;;
12348;SDS011;5974;42.710;27.258;2022-09-03T02:23:55;12.57;;;5.67;;
12348;SDS011;5974;42.710;27.258;2022-09-03T02:26:23;9.07;;;6.00;;
12348;SDS011;5974;42.710;27.258;2022-09-03T02:28:50;10.93;;;6.50;;
12348;SDS011;5974;42.710;27.258;2022-09-03T02:31:17;8.17;;;6.53;;
12348;SDS011;5974;42.710;27.258;2022-09-03T02:33:46;9.83;;;6.77;;
12348;SDS011;5974;42.710;27.258;2022-09-03T02:36:14;10.37;;;6.90;;
12348;SDS011;5974;42.710;27.258;2022-09-03T02:38:43;12.70;;;7.27;;
12348;SDS011;5974;42.710;27.258;2022-09-03T02:41:09;9.77;;;7.23;;
12348;SDS011;5974;42.710;27.258;2022-09-03T02:43:40;12.43;;;7.20;;
12348;SDS011;5974;42.710;27.258;2022-09-03T02:46:08;11.07;;;7.50;;
12348;SDS011;5974;42.710;27.258;2022-09-03T02:48:35;7.67;;;6.83;;
12348;SDS011;5974;42.710;27.258;2022-09-03T02:51:03;8.50;;;7.63;;
12348;SDS011;5974;42.710;27.258;2022-09-03T02:53:30;9.37;;;6.80;;
12348;SDS011;5974;42.710;27.258;2022-09-03T02:55:57;9.33;;;6.70;;
12348;SDS011;5974;42.710;27.258;2022-09-03T02:58:24;7.13;;;6.43;;
12348;SDS011;5974;42.710;27.258;2022-09-03T03:00:51;9.43;;;6.20;;
12348;SDS011;5974;42.710;27.258;2022-09-03T03:03:18;8.23;;;6.20;;
12348;SDS011;5974;42.710;27.258;2022-09-03T03:05:45;10.73;;;6.67;;
12348;SDS011;5974;42.710;27.258;2022-09-03T03:08:14;10.70;;;6.50;;
12348;SDS011;5974;42.710;27.258;2022-09-03T03:10:41;8.80;;;6.27;;
12348;SDS011;5974;42.710;27.258;2022-09-03T03:13:09;10.10;;;7.00;;
12348;SDS011;5974;42.710;27.258;2022-09-03T03:15:35;9.27;;;6.83;;
12348;SDS011;5974;42.710;27.258;2022-09-03T03:18:02;9.43;;;7.60;;
12348;SDS011;5974;42.710;27.258;2022-09-03T03:20:30;10.70;;;7.03;;
12348;SDS011;5974;42.710;27.258;2022-09-03T03:22:57;9.23;;;7.67;;
12348;SDS011;5974;42.710;27.258;2022-09-03T03:25:25;10.53;;;7.47;;
12348;SDS011;5974;42.710;27.258;2022-09-03T03:27:53;9.67;;;7.83;;
12348;SDS011;5974;42.710;27.258;2022-09-03T03:30:21;11.07;;;8.30;;
12348;SDS011;5974;42.710;27.258;2022-09-03T03:32:48;10.00;;;8.40;;
12348;SDS011;5974;42.710;27.258;2022-09-03T03:35:15;9.70;;;7.67;;
12348;SDS011;5974;42.710;27.258;2022-09-03T03:37:41;9.33;;;7.30;;
12348;SDS011;5974;42.710;27.258;2022-09-03T03:40:08;8.27;;;7.47;;
12348;SDS011;5974;42.710;27.258;2022-09-03T03:42:36;10.67;;;8.07;;
12348;SDS011;5974;42.710;27.258;2022-09-03T03:45:04;8.97;;;7.27;;
12348;SDS011;5974;42.710;27.258;2022-09-03T03:47:30;8.27;;;5.83;;
12348;SDS011;5974;42.710;27.258;2022-09-03T03:49:57;6.70;;;5.90;;
12348;SDS011;5974;42.710;27.258;2022-09-03T03:52:24;11.63;;;6.53;;
12348;SDS011;5974;42.710;27.258;2022-09-03T03:54:51;6.40;;;5.80;;
12348;SDS011;5974;42.710;27.258;2022-09-03T03:57:18;6.23;;;5.63;;
12348;SDS011;5974;42.710;27.258;2022-09-03T03:59:47;11.60;;;5.60;;
12348;SDS011;5974;42.710;27.258;2022-09-03T04:02:14;5.80;;;4.37;;
12348;SDS011;5974;42.710;27.258;2022-09-03T04:04:40;6.73;;;4.57;;
12348;SDS011;5974;42.710;27.258;2022-09-03T04:07:07;8.30;;;5.70;;
12348;SDS011;5974;42.710;27.258;2022-09-03T04:09:34;8.80;;;4.90;;
12348;SDS011;5974;42.710;27.258;2022-09-03T04:12:01;7.10;;;4.47;;
12348;SDS011;5974;42.710;27.258;2022-09-03T04:14:29;4.63;;;4.23;;
12348;SDS011;5974;42.710;27.258;2022-09-03T04:16:57;4.60;;;3.80;;
12348;SDS011;5974;42.710;27.258;2022-09-03T04:19:24;4.77;;;4.13;;
12348;SDS011;5974;42.710;27.258;2022-09-03T04:21:53;5.20;;;3.60;;
12348;SDS011;5974;42.710;27.258;2022-09-03T04:24:20;5.40;;;3.90;;
12348;SDS011;5974;42.710;27.258;2022-09-03T04:26:46;4.87;;;4.10;;
12348;SDS011;5974;42.710;27.258;2022-09-03T04:29:14;3.33;;;3.13;;
12348;SDS011;5974;42.710;27.258;2022-09-03T04:31:42;3.50;;;3.20;;
12348;SDS011;5974;42.710;27.258;2022-09-03T04:34:30;5.57;;;3.20;;
12348;SDS011;5974;42.710;27.258;2022-09-03T04:36:57;5.23;;;3.00;;
12348;SDS011;5974;42.710;27.258;2022-09-03T04:39:24;4.43;;;3.30;;
12348;SDS011;5974;42.710;27.258;2022-09-03T04:41:50;3.87;;;3.10;;
12348;SDS011;5974;42.710;27.258;2022-09-03T04:44:17;3.70;;;2.73;;
12348;SDS011;5974;42.710;27.258;2022-09-03T04:46:44;3.53;;;2.90;;
12348;SDS011;5974;42.710;27.258;2022-09-03T04:49:11;4.60;;;2.57;;
12348;SDS011;5974;42.710;27.258;2022-09-03T04:51:40;2.67;;;2.43;;
12348;SDS011;5974;42.710;27.258;2022-09-03T04:54:07;2.60;;;2.40;;
12348;SDS011;5974;42.710;27.258;2022-09-03T04:56:35;2.57;;;2.37;;
12348;SDS011;5974;42.710;27.258;2022-09-03T04:59:02;3.70;;;2.30;;
12348;SDS011;5974;42.710;27.258;2022-09-03T05:01:29;2.93;;;2.30;;
12348;SDS011;5974;42.710;27.258;2022-09-03T05:03:57;2.33;;;2.13;;
12348;SDS011;5974;42.710;27.258;2022-09-03T05:06:24;3.60;;;2.10;;
12348;SDS011;5974;42.710;27.258;2022-09-03T05:08:52;3.83;;;2.13;;
12348;SDS011;5974;42.710;27.258;2022-09-03T05:11:19;2.97;;;2.20;;
12348;SDS011;5974;42.710;27.258;2022-09-03T05:13:46;2.40;;;2.00;;
12348;SDS011;5974;42.710;27.258;2022-09-03T05:16:13;2.43;;;2.33;;
12348;SDS011;5974;42.710;27.258;2022-09-03T05:18:40;2.10;;;2.00;;
12348;SDS011;5974;42.710;27.258;2022-09-03T05:21:08;2.93;;;2.13;;
12348;SDS011;5974;42.710;27.258;2022-09-03T05:23:36;2.80;;;2.20;;
12348;SDS011;5974;42.710;27.258;2022-09-03T05:26:07;2.53;;;2.23;;
12348;SDS011;5974;42.710;27.258;2022-09-03T05:28:35;2.30;;;2.10;;
12348;SDS011;5974;42.710;27.258;2022-09-03T05:31:02;4.37;;;1.90;;
12348;SDS011;5974;42.710;27.258;2022-09-03T05:33:32;2.10;;;2.00;;
12348;SDS011;5974;42.710;27.258;2022-09-03T05:35:59;2.00;;;1.90;;
12348;SDS011;5974;42.710;27.258;2022-09-03T05:38:26;2.43;;;1.70;;
12348;SDS011;5974;42.710;27.258;2022-09-03T05:40:53;1.60;;;1.50;;
12348;SDS011;5974;42.710;27.258;2022-09-03T05:43:21;1.60;;;1.50;;
12348;SDS011;5974;42.710;27.258;2022-09-03T05:45:48;1.90;;;1.80;;
12348;SDS011;5974;42.710;27.258;2022-09-03T05:48:15;1.90;;;1.63;;
12348;SDS011;5974;42.710;27.258;2022-09-03T05:50:41;1.57;;;1.47;;
12348;SDS011;5974;42.710;27.258;2022-09-03T05:53:08;1.37;;;1.37;;
12348;SDS011;5974;42.710;27.258;2022-09-03T05:55:34;1.43;;;1.40;;
12348;SDS011;5974;42.710;27.258;2022-09-03T05:58:01;2.93;;;1.47;;
12348;SDS011;5974;42.710;27.258;2022-09-03T06:00:29;1.93;;;1.50;;
12348;SDS011;5974;42.710;27.258;2022-09-03T06:02:56;2.43;;;1.03;;
12348;SDS011;5974;42.710;27.258;2022-09-03T06:05:22;1.13;;;1.03;;
12348;SDS011;5974;42.710;27.258;2022-09-03T06:07:49;1.47;;;1.20;;
12348;SDS011;5974;42.710;27.258;2022-09-03T06:10:17;1.13;;;1.13;;
12348;SDS011;5974;42.710;27.258;2022-09-03T06:12:43;1.25;;;1.20;;
12348;SDS011;5974;42.710;27.258;2022-09-03T06:15:13;1.10;;;1.00;;
12348;SDS011;5974;42.710;27.258;2022-09-03T06:17:42;2.03;;;1.08;;
12348;SDS011;5974;42.710;27.258;2022-09-03T06:20:09;0.85;;;0.85;;
12348;SDS011;5974;42.710;27.258;2022-09-03T06:22:35;0.97;;;0.97;;
12348;SDS011;5974;42.710;27.258;2022-09-03T06:25:02;1.27;;;1.00;;
12348;SDS011;5974;42.710;27.258;2022-09-03T06:27:29;0.93;;;0.90;;
12348;SDS011;5974;42.710;27.258;2022-09-03T06:29:55;1.77;;;0.83;;
12348;SDS011;5974;42.710;27.258;2022-09-03T06:32:23;0.90;;;0.90;;
12348;SDS011;5974;42.710;27.258;2022-09-03T06:34:51;1.17;;;0.73;;
12348;SDS011;5974;42.710;27.258;2022-09-03T06:37:18;1.10;;;1.10;;
12348;SDS011;5974;42.710;27.258;2022-09-03T06:39:44;0.90;;;0.90;;
12348;SDS011;5974;42.710;27.258;2022-09-03T06:42:11;0.90;;;0.90;;
12348;SDS011;5974;42.710;27.258;2022-09-03T06:44:38;0.73;;;0.73;;
12348;SDS011;5974;42.710;27.258;2022-09-03T06:47:04;1.00;;;1.00;;
12348;SDS011;5974;42.710;27.258;2022-09-03T06:49:31;2.03;;;1.10;;
12348;SDS011;5974;42.710;27.258;2022-09-03T06:51:59;1.00;;;1.00;;
12348;SDS011;5974;42.710;27.258;2022-09-03T06:54:25;0.70;;;0.70;;
12348;SDS011;5974;42.710;27.258;2022-09-03T06:56:52;1.25;;;1.00;;
12348;SDS011;5974;42.710;27.258;2022-09-03T06:59:19;0.75;;;0.70;;
12348;SDS011;5974;42.710;27.258;2022-09-03T07:01:45;0.80;;;0.80;;
12348;SDS011;5974;42.710;27.258;2022-09-03T07:04:12;0.70;;;0.70;;
12348;SDS011;5974;42.710;27.258;2022-09-03T07:06:40;0.97;;;0.90;;
12348;SDS011;5974;42.710;27.258;2022-09-03T07:09:12;1.43;;;0.80;;
12348;SDS011;5974;42.710;27.258;2022-09-03T07:11:39;1.37;;;0.90;;
12348;SDS011;5974;42.710;27.258;2022-09-03T07:14:10;3.30;;;0.70;;
12348;SDS011;5974;42.710;27.258;2022-09-03T07:16:37;0.80;;;0.80;;
12348;SDS011;5974;42.710;27.258;2022-09-03T07:19:05;0.80;;;0.80;;
12348;SDS011;5974;42.710;27.258;2022-09-03T07:21:33;1.07;;;0.70;;
12348;SDS011;5974;42.710;27.258;2022-09-03T07:24:00;0.73;;;0.67;;
12348;SDS011;5974;42.710;27.258;2022-09-03T07:26:31;0.70;;;0.70;;
12348;SDS011;5974;42.710;27.258;2022-09-03T07:28:58;0.63;;;0.63;;
12348;SDS011;5974;42.710;27.258;2022-09-03T07:31:25;2.23;;;0.83;;
12348;SDS011;5974;42.710;27.258;2022-09-03T07:33:52;3.13;;;0.80;;
12348;SDS011;5974;42.710;27.258;2022-09-03T07:36:20;0.70;;;0.70;;
12348;SDS011;5974;42.710;27.258;2022-09-03T07:38:47;1.17;;;0.70;;
12348;SDS011;5974;42.710;27.258;2022-09-03T07:41:14;0.70;;;0.70;;
12348;SDS011;5974;42.710;27.258;2022-09-03T07:43:43;0.80;;;0.80;;
12348;SDS011;5974;42.710;27.258;2022-09-03T07:46:11;0.80;;;0.80;;
12348;SDS011;5974;42.710;27.258;2022-09-03T07:48:38;1.63;;;0.70;;
12348;SDS011;5974;42.710;27.258;2022-09-03T07:51:05;0.70;;;0.70;;
12348;SDS011;5974;42.710;27.258;2022-09-03T07:53:32;2.93;;;0.80;;
12348;SDS011;5974;42.710;27.258;2022-09-03T07:56:02;0.60;;;0.60;;
12348;SDS011;5974;42.710;27.258;2022-09-03T07:58:29;0.67;;;0.67;;
12348;SDS011;5974;42.710;27.258;2022-09-03T08:00:57;35.73;;;4.43;;
12348;SDS011;5974;42.710;27.258;2022-09-03T08:03:24;16.77;;;2.70;;
12348;SDS011;5974;42.710;27.258;2022-09-03T08:05:51;1.43;;;0.80;;
12348;SDS011;5974;42.710;27.258;2022-09-03T08:08:18;2.23;;;0.80;;
12348;SDS011;5974;42.710;27.258;2022-09-03T08:10:44;2.30;;;0.90;;
12348;SDS011;5974;42.710;27.258;2022-09-03T08:13:11;1.00;;;0.90;;
12348;SDS011;5974;42.710;27.258;2022-09-03T08:15:38;0.90;;;0.90;;
12348;SDS011;5974;42.710;27.258;2022-09-03T08:18:08;0.70;;;0.70;;
12348;SDS011;5974;42.710;27.258;2022-09-03T08:20:35;4.07;;;0.83;;
12348;SDS011;5974;42.710;27.258;2022-09-03T08:23:03;2.97;;;0.90;;
12348;SDS011;5974;42.710;27.258;2022-09-03T08:25:29;0.70;;;0.70;;
12348;SDS011;5974;42.710;27.258;2022-09-03T08:27:57;2.33;;;0.90;;
12348;SDS011;5974;42.710;27.258;2022-09-03T08:30:23;1.10;;;0.80;;
12348;SDS011;5974;42.710;27.258;2022-09-03T08:32:51;0.80;;;0.80;;
12348;SDS011;5974;42.710;27.258;2022-09-03T08:35:19;0.90;;;0.90;;
12348;SDS011;5974;42.710;27.258;2022-09-03T08:37:46;1.10;;;1.10;;
12348;SDS011;5974;42.710;27.258;2022-09-03T08:40:16;1.40;;;1.30;;
12348;SDS011;5974;42.710;27.258;2022-09-03T08:42:45;3.20;;;1.57;;
12348;SDS011;5974;42.710;27.258;2022-09-03T08:45:15;1.20;;;1.10;;
12348;SDS011;5974;42.710;27.258;2022-09-03T08:47:44;2.47;;;1.10;;
12348;SDS011;5974;42.710;27.258;2022-09-03T08:50:15;1.87;;;1.20;;
12348;SDS011;5974;42.710;27.258;2022-09-03T08:52:45;1.50;;;1.40;;
12348;SDS011;5974;42.710;27.258;2022-09-03T08:55:17;1.73;;;1.40;;
12348;SDS011;5974;42.710;27.258;2022-09-03T08:57:46;1.47;;;1.37;;
12348;SDS011;5974;42.710;27.258;2022-09-03T09:00:13;1.13;;;1.13;;
12348;SDS011;5974;42.710;27.258;2022-09-03T09:02:43;1.60;;;1.50;;
12348;SDS011;5974;42.710;27.258;2022-09-03T09:05:15;1.57;;;1.47;;
12348;SDS011;5974;42.710;27.258;2022-09-03T09:07:43;3.57;;;1.70;;
12348;SDS011;5974;42.710;27.258;2022-09-03T09:10:15;1.50;;;1.40;;
12348;SDS011;5974;42.710;27.258;2022-09-03T09:12:45;1.87;;;1.30;;
12348;SDS011;5974;42.710;27.258;2022-09-03T09:15:16;1.50;;;1.00;;
12348;SDS011;5974;42.710;27.258;2022-09-03T09:17:48;1.30;;;1.30;;
12348;SDS011;5974;42.710;27.258;2022-09-03T09:20:18;2.10;;;1.30;;
12348;SDS011;5974;42.710;27.258;2022-09-03T09:22:48;3.13;;;1.67;;
12348;SDS011;5974;42.710;27.258;2022-09-03T09:25:18;24.40;;;4.07;;
12348;SDS011;5974;42.710;27.258;2022-09-03T09:27:47;3.10;;;1.10;;
12348;SDS011;5974;42.710;27.258;2022-09-03T09:30:16;34.63;;;4.73;;
12348;SDS011;5974;42.710;27.258;2022-09-03T09:32:43;1.47;;;1.30;;
12348;SDS011;5974;42.710;27.258;2022-09-03T09:35:12;1.63;;;1.07;;
12348;SDS011;5974;42.710;27.258;2022-09-03T09:37:46;1.93;;;1.10;;
12348;SDS011;5974;42.710;27.258;2022-09-03T09:40:22;1.10;;;1.10;;
12348;SDS011;5974;42.710;27.258;2022-09-03T09:42:50;2.27;;;1.10;;
12348;SDS011;5974;42.710;27.258;2022-09-03T09:48:25;2.00;;;1.20;;
12348;SDS011;5974;42.710;27.258;2022-09-03T09:51:06;3.50;;;1.27;;
12348;SDS011;5974;42.710;27.258;2022-09-03T09:53:34;1.57;;;1.20;;
12348;SDS011;5974;42.710;27.258;2022-09-03T09:56:02;2.90;;;1.50;;
12348;SDS011;5974;42.710;27.258;2022-09-03T09:58:32;8.13;;;1.90;;
12348;SDS011;5974;42.710;27.258;2022-09-03T10:01:01;21.97;;;3.40;;
12348;SDS011;5974;42.710;27.258;2022-09-03T10:03:32;1.20;;;1.20;;
12348;SDS011;5974;42.710;27.258;2022-09-03T10:06:01;5.23;;;1.83;;
12348;SDS011;5974;42.710;27.258;2022-09-03T10:08:50;3.13;;;1.43;;
12348;SDS011;5974;42.710;27.258;2022-09-03T10:11:18;1.40;;;1.40;;
12348;SDS011;5974;42.710;27.258;2022-09-03T10:13:47;1.93;;;1.53;;
12348;SDS011;5974;42.710;27.258;2022-09-03T10:16:19;4.27;;;1.53;;
12348;SDS011;5974;42.710;27.258;2022-09-03T10:18:48;3.07;;;1.47;;
12348;SDS011;5974;42.710;27.258;2022-09-03T10:21:19;1.27;;;1.27;;
12348;SDS011;5974;42.710;27.258;2022-09-03T10:23:50;5.47;;;1.50;;
12348;SDS011;5974;42.710;27.258;2022-09-03T10:26:22;1.77;;;1.57;;
12348;SDS011;5974;42.710;27.258;2022-09-03T10:28:55;1.20;;;1.20;;
12348;SDS011;5974;42.710;27.258;2022-09-03T10:31:31;1.20;;;1.10;;
12348;SDS011;5974;42.710;27.258;2022-09-03T10:34:02;22.07;;;2.77;;
12348;SDS011;5974;42.710;27.258;2022-09-03T10:36:32;3.27;;;1.50;;
12348;SDS011;5974;42.710;27.258;2022-09-03T10:39:01;1.43;;;1.37;;
12348;SDS011;5974;42.710;27.258;2022-09-03T10:41:35;1.20;;;1.20;;
12348;SDS011;5974;42.710;27.258;2022-09-03T10:44:23;1.10;;;1.10;;
12348;SDS011;5974;42.710;27.258;2022-09-03T10:47:02;1.13;;;1.13;;
12348;SDS011;5974;42.710;27.258;2022-09-03T10:49:36;1.10;;;0.97;;
12348;SDS011;5974;42.710;27.258;2022-09-03T10:52:07;2.10;;;1.00;;
12348;SDS011;5974;42.710;27.258;2022-09-03T10:54:41;1.23;;;1.20;;
12348;SDS011;5974;42.710;27.258;2022-09-03T10:57:15;2.70;;;1.23;;
12348;SDS011;5974;42.710;27.258;2022-09-03T10:59:46;1.13;;;1.13;;
12348;SDS011;5974;42.710;27.258;2022-09-03T11:02:28;1.13;;;1.13;;
12348;SDS011;5974;42.710;27.258;2022-09-03T11:04:59;1.20;;;1.20;;
12348;SDS011;5974;42.710;27.258;2022-09-03T11:07:31;1.30;;;1.20;;
12348;SDS011;5974;42.710;27.258;2022-09-03T11:10:05;3.40;;;1.50;;
12348;SDS011;5974;42.710;27.258;2022-09-03T11:12:37;1.60;;;1.57;;
12348;SDS011;5974;42.710;27.258;2022-09-03T11:15:06;1.30;;;1.30;;
12348;SDS011;5974;42.710;27.258;2022-09-03T11:17:36;1.50;;;1.50;;
12348;SDS011;5974;42.710;27.258;2022-09-03T11:20:05;2.47;;;1.53;;
12348;SDS011;5974;42.710;27.258;2022-09-03T11:22:36;2.37;;;1.93;;
12348;SDS011;5974;42.710;27.258;2022-09-03T11:25:04;1.73;;;1.63;;
12348;SDS011;5974;42.710;27.258;2022-09-03T11:27:35;1.70;;;1.60;;
12348;SDS011;5974;42.710;27.258;2022-09-03T11:30:05;1.63;;;1.60;;
12348;SDS011;5974;42.710;27.258;2022-09-03T11:32:39;1.40;;;1.40;;
12348;SDS011;5974;42.710;27.258;2022-09-03T11:35:12;1.60;;;1.50;;
12348;SDS011;5974;42.710;27.258;2022-09-03T11:37:51;2.00;;;1.90;;
12348;SDS011;5974;42.710;27.258;2022-09-03T11:40:19;2.10;;;1.90;;
12348;SDS011;5974;42.710;27.258;2022-09-03T11:42:48;1.70;;;1.60;;
12348;SDS011;5974;42.710;27.258;2022-09-03T11:45:32;1.80;;;1.70;;
12348;SDS011;5974;42.710;27.258;2022-09-03T11:48:00;1.70;;;1.60;;
12348;SDS011;5974;42.710;27.258;2022-09-03T11:50:27;1.90;;;1.80;;
12348;SDS011;5974;42.710;27.258;2022-09-03T11:53:06;1.57;;;1.57;;
12348;SDS011;5974;42.710;27.258;2022-09-03T11:55:45;1.60;;;1.60;;
12348;SDS011;5974;42.710;27.258;2022-09-03T11:58:16;3.13;;;2.00;;
12348;SDS011;5974;42.710;27.258;2022-09-03T12:00:46;2.13;;;1.87;;
12348;SDS011;5974;42.710;27.258;2022-09-03T12:03:14;1.97;;;1.87;;
12348;SDS011;5974;42.710;27.258;2022-09-03T12:05:44;3.47;;;1.80;;
12348;SDS011;5974;42.710;27.258;2022-09-03T12:08:25;2.60;;;2.10;;
12348;SDS011;5974;42.710;27.258;2022-09-03T12:11:01;2.17;;;2.07;;
12348;SDS011;5974;42.710;27.258;2022-09-03T12:13:35;2.33;;;2.23;;
12348;SDS011;5974;42.710;27.258;2022-09-03T12:18:54;3.50;;;2.37;;
12348;SDS011;5974;42.710;27.258;2022-09-03T12:21:25;3.27;;;2.20;;
12348;SDS011;5974;42.710;27.258;2022-09-03T12:23:52;2.73;;;2.27;;
12348;SDS011;5974;42.710;27.258;2022-09-03T12:26:19;2.83;;;2.63;;
12348;SDS011;5974;42.710;27.258;2022-09-03T12:28:48;2.57;;;2.40;;
12348;SDS011;5974;42.710;27.258;2022-09-03T12:31:27;3.63;;;2.67;;
12348;SDS011;5974;42.710;27.258;2022-09-03T12:33:57;2.63;;;2.43;;
12348;SDS011;5974;42.710;27.258;2022-09-03T12:36:24;2.50;;;2.30;;
12348;SDS011;5974;42.710;27.258;2022-09-03T12:38:51;2.70;;;2.50;;
12348;SDS011;5974;42.710;27.258;2022-09-03T12:41:19;3.10;;;2.53;;
12348;SDS011;5974;42.710;27.258;2022-09-03T12:43:48;2.63;;;2.43;;
12348;SDS011;5974;42.710;27.258;2022-09-03T12:46:16;2.90;;;2.70;;
12348;SDS011;5974;42.710;27.258;2022-09-03T12:48:45;2.63;;;2.53;;
12348;SDS011;5974;42.710;27.258;2022-09-03T12:51:14;3.10;;;2.90;;
12348;SDS011;5974;42.710;27.258;2022-09-03T12:53:40;3.10;;;2.90;;
12348;SDS011;5974;42.710;27.258;2022-09-03T12:56:07;2.80;;;2.70;;
12348;SDS011;5974;42.710;27.258;2022-09-03T12:58:34;2.97;;;2.77;;
12348;SDS011;5974;42.710;27.258;2022-09-03T13:01:04;3.03;;;2.90;;
12348;SDS011;5974;42.710;27.258;2022-09-03T13:03:36;3.00;;;2.90;;
12348;SDS011;5974;42.710;27.258;2022-09-03T13:06:05;2.90;;;2.70;;
12348;SDS011;5974;42.710;27.258;2022-09-03T13:08:37;2.70;;;2.60;;
12348;SDS011;5974;42.710;27.258;2022-09-03T13:11:05;2.80;;;2.60;;
12348;SDS011;5974;42.710;27.258;2022-09-03T13:13:32;3.47;;;2.57;;
12348;SDS011;5974;42.710;27.258;2022-09-03T13:16:08;2.30;;;2.20;;
12348;SDS011;5974;42.710;27.258;2022-09-03T13:18:36;2.10;;;2.00;;
12348;SDS011;5974;42.710;27.258;2022-09-03T13:21:09;2.30;;;2.10;;
12348;SDS011;5974;42.710;27.258;2022-09-03T13:23:46;1.80;;;1.70;;
12348;SDS011;5974;42.710;27.258;2022-09-03T13:26:19;2.10;;;2.00;;
12348;SDS011;5974;42.710;27.258;2022-09-03T13:28:53;1.97;;;1.87;;
12348;SDS011;5974;42.710;27.258;2022-09-03T13:31:25;1.90;;;1.80;;
12348;SDS011;5974;42.710;27.258;2022-09-03T13:33:56;2.30;;;2.10;;
12348;SDS011;5974;42.710;27.258;2022-09-03T13:36:24;1.70;;;1.70;;
12348;SDS011;5974;42.710;27.258;2022-09-03T13:38:54;1.63;;;1.57;;
12348;SDS011;5974;42.710;27.258;2022-09-03T13:41:27;1.60;;;1.60;;
12348;SDS011;5974;42.710;27.258;2022-09-03T13:44:01;1.60;;;1.50;;
12348;SDS011;5974;42.710;27.258;2022-09-03T13:46:34;1.70;;;1.70;;
12348;SDS011;5974;42.710;27.258;2022-09-03T13:49:02;1.80;;;1.70;;
12348;SDS011;5974;42.710;27.258;2022-09-03T13:51:50;1.80;;;1.70;;
12348;SDS011;5974;42.710;27.258;2022-09-03T13:54:23;1.60;;;1.60;;
12348;SDS011;5974;42.710;27.258;2022-09-03T13:56:53;1.50;;;1.50;;
12348;SDS011;5974;42.710;27.258;2022-09-03T13:59:24;1.77;;;1.47;;
12348;SDS011;5974;42.710;27.258;2022-09-03T14:01:57;1.50;;;1.40;;
12348;SDS011;5974;42.710;27.258;2022-09-03T14:04:28;1.80;;;1.70;;
12348;SDS011;5974;42.710;27.258;2022-09-03T14:07:01;1.37;;;1.37;;
12348;SDS011;5974;42.710;27.258;2022-09-03T14:09:36;1.40;;;1.40;;
12348;SDS011;5974;42.710;27.258;2022-09-03T14:12:09;1.63;;;1.60;;
12348;SDS011;5974;42.710;27.258;2022-09-03T14:14:40;2.33;;;1.43;;
12348;SDS011;5974;42.710;27.258;2022-09-03T14:17:11;2.10;;;1.60;;
12348;SDS011;5974;42.710;27.258;2022-09-03T14:19:42;1.60;;;1.50;;
12348;SDS011;5974;42.710;27.258;2022-09-03T14:22:12;1.90;;;1.80;;
12348;SDS011;5974;42.710;27.258;2022-09-03T14:24:44;2.13;;;1.67;;
12348;SDS011;5974;42.710;27.258;2022-09-03T14:27:12;2.10;;;2.00;;
12348;SDS011;5974;42.710;27.258;2022-09-03T14:29:49;1.60;;;1.60;;
12348;SDS011;5974;42.710;27.258;2022-09-03T14:32:24;1.93;;;1.80;;
12348;SDS011;5974;42.710;27.258;2022-09-03T14:34:59;2.00;;;1.90;;
12348;SDS011;5974;42.710;27.258;2022-09-03T14:37:38;4.40;;;1.90;;
12348;SDS011;5974;42.710;27.258;2022-09-03T14:40:12;1.97;;;1.87;;
12348;SDS011;5974;42.710;27.258;2022-09-03T14:42:42;2.10;;;2.00;;
12348;SDS011;5974;42.710;27.258;2022-09-03T14:48:04;2.37;;;2.27;;
12348;SDS011;5974;42.710;27.258;2022-09-03T14:50:36;2.50;;;2.40;;
12348;SDS011;5974;42.710;27.258;2022-09-03T14:58:43;2.40;;;2.30;;
12348;SDS011;5974;42.710;27.258;2022-09-03T15:01:14;2.10;;;2.00;;
12348;SDS011;5974;42.710;27.258;2022-09-03T15:03:59;2.93;;;2.10;;
12348;SDS011;5974;42.710;27.258;2022-09-03T15:06:37;3.33;;;2.10;;
12348;SDS011;5974;42.710;27.258;2022-09-03T15:11:47;2.27;;;2.10;;
12348;SDS011;5974;42.710;27.258;2022-09-03T15:14:19;2.87;;;2.30;;
12348;SDS011;5974;42.710;27.258;2022-09-03T15:16:49;2.40;;;2.20;;
12348;SDS011;5974;42.710;27.258;2022-09-03T15:19:27;2.60;;;2.50;;
12348;SDS011;5974;42.710;27.258;2022-09-03T15:22:05;2.40;;;2.30;;
12348;SDS011;5974;42.710;27.258;2022-09-03T15:24:36;2.40;;;2.30;;
12348;SDS011;5974;42.710;27.258;2022-09-03T15:27:10;3.37;;;3.10;;